sensor_id;sensor_type;location;lat;lon;timestamp;P1;durP1;ratioP1;P2;durP2;ratioP2
23123;SDS011;11731;48.592;8.858;2023-02-01T00:02:20;4.37;;;3.13;;
23123;SDS011;11731;48.592;8.858;2023-02-01T00:04:47;4.63;;;3.27;;
23123;SDS011;11731;48.592;8.858;2023-02-01T00:07:17;4.47;;;3.20;;
23123;SDS011;11731;48.592;8.858;2023-02-01T00:10:07;4.80;;;3.33;;
23123;SDS011;11731;48.592;8.858;2023-02-01T00:12:39;5.60;;;2.93;;
23123;SDS011;11731;48.592;8.858;2023-02-01T00:15:06;4.13;;;3.33;;
23123;SDS011;11731;48.592;8.858;2023-02-01T00:17:36;6.23;;;3.80;;
23123;SDS011;11731;48.592;8.858;2023-02-01T00:20:05;4.20;;;2.97;;
23123;SDS011;11731;48.592;8.858;2023-02-01T00:22:33;4.90;;;3.17;;
23123;SDS011;11731;48.592;8.858;2023-02-01T00:25:00;4.33;;;3.20;;
23123;SDS011;11731;48.592;8.858;2023-02-01T00:27:28;3.63;;;3.00;;
23123;SDS011;11731;48.592;8.858;2023-02-01T00:29:55;5.97;;;3.30;;
23123;SDS011;11731;48.592;8.858;2023-02-01T00:32:22;3.93;;;3.33;;
23123;SDS011;11731;48.592;8.858;2023-02-01T00:34:49;3.37;;;3.07;;
23123;SDS011;11731;48.592;8.858;2023-02-01T00:37:16;3.17;;;2.77;;
23123;SDS011;11731;48.592;8.858;2023-02-01T00:39:57;4.30;;;3.00;;
23123;SDS011;11731;48.592;8.858;2023-02-01T00:42:24;4.40;;;2.60;;
23123;SDS011;11731;48.592;8.858;2023-02-01T00:44:52;6.93;;;3.10;;
23123;SDS011;11731;48.592;8.858;2023-02-01T00:47:21;3.47;;;2.90;;
23123;SDS011;11731;48.592;8.858;2023-02-01T00:49:48;3.63;;;2.80;;
23123;SDS011;11731;48.592;8.858;2023-02-01T00:52:15;3.87;;;2.53;;
23123;SDS011;11731;48.592;8.858;2023-02-01T00:54:42;3.27;;;2.03;;
23123;SDS011;11731;48.592;8.858;2023-02-01T00:57:09;3.87;;;2.70;;
23123;SDS011;11731;48.592;8.858;2023-02-01T00:59:38;3.47;;;2.70;;
23123;SDS011;11731;48.592;8.858;2023-02-01T01:02:06;4.77;;;3.00;;
23123;SDS011;11731;48.592;8.858;2023-02-01T01:04:33;3.03;;;2.40;;
23123;SDS011;11731;48.592;8.858;2023-02-01T01:07:00;2.50;;;2.20;;
23123;SDS011;11731;48.592;8.858;2023-02-01T01:09:27;4.07;;;2.90;;
23123;SDS011;11731;48.592;8.858;2023-02-01T01:11:53;3.27;;;2.50;;
23123;SDS011;11731;48.592;8.858;2023-02-01T01:14:20;3.00;;;2.37;;
23123;SDS011;11731;48.592;8.858;2023-02-01T01:16:47;3.37;;;2.70;;
23123;SDS011;11731;48.592;8.858;2023-02-01T01:19:16;2.90;;;2.40;;
23123;SDS011;11731;48.592;8.858;2023-02-01T01:21:43;3.30;;;2.40;;
23123;SDS011;11731;48.592;8.858;2023-02-01T01:24:10;3.13;;;2.63;;
23123;SDS011;11731;48.592;8.858;2023-02-01T01:26:37;4.03;;;2.70;;
23123;SDS011;11731;48.592;8.858;2023-02-01T01:29:04;4.30;;;3.17;;
23123;SDS011;11731;48.592;8.858;2023-02-01T01:31:31;7.07;;;3.10;;
23123;SDS011;11731;48.592;8.858;2023-02-01T01:33:58;3.63;;;2.97;;
23123;SDS011;11731;48.592;8.858;2023-02-01T01:36:27;3.40;;;3.10;;
23123;SDS011;11731;48.592;8.858;2023-02-01T01:38:54;4.10;;;3.03;;
23123;SDS011;11731;48.592;8.858;2023-02-01T01:41:33;4.07;;;2.73;;
23123;SDS011;11731;48.592;8.858;2023-02-01T01:44:01;3.63;;;2.93;;
23123;SDS011;11731;48.592;8.858;2023-02-01T01:46:30;3.60;;;2.60;;
23123;SDS011;11731;48.592;8.858;2023-02-01T01:49:00;3.33;;;2.63;;
23123;SDS011;11731;48.592;8.858;2023-02-01T01:51:34;3.20;;;2.63;;
23123;SDS011;11731;48.592;8.858;2023-02-01T01:54:07;2.90;;;2.33;;
23123;SDS011;11731;48.592;8.858;2023-02-01T01:56:42;3.30;;;2.20;;
23123;SDS011;11731;48.592;8.858;2023-02-01T01:59:16;4.30;;;2.30;;
23123;SDS011;11731;48.592;8.858;2023-02-01T02:01:43;2.90;;;2.30;;
23123;SDS011;11731;48.592;8.858;2023-02-01T02:04:11;3.47;;;2.20;;
23123;SDS011;11731;48.592;8.858;2023-02-01T02:06:40;3.07;;;2.50;;
23123;SDS011;11731;48.592;8.858;2023-02-01T02:09:13;2.50;;;2.23;;
23123;SDS011;11731;48.592;8.858;2023-02-01T02:11:40;4.27;;;2.77;;
23123;SDS011;11731;48.592;8.858;2023-02-01T02:14:08;3.07;;;2.20;;
23123;SDS011;11731;48.592;8.858;2023-02-01T02:16:58;2.80;;;2.30;;
23123;SDS011;11731;48.592;8.858;2023-02-01T02:22:55;3.73;;;2.80;;
23123;SDS011;11731;48.592;8.858;2023-02-01T02:26:03;3.80;;;2.53;;
23123;SDS011;11731;48.592;8.858;2023-02-01T02:28:47;2.27;;;2.07;;
23123;SDS011;11731;48.592;8.858;2023-02-01T02:31:38;3.30;;;2.67;;
23123;SDS011;11731;48.592;8.858;2023-02-01T02:34:16;3.30;;;2.53;;
23123;SDS011;11731;48.592;8.858;2023-02-01T02:36:49;3.33;;;2.63;;
23123;SDS011;11731;48.592;8.858;2023-02-01T02:39:23;2.47;;;2.00;;
23123;SDS011;11731;48.592;8.858;2023-02-01T02:42:21;4.23;;;2.60;;
23123;SDS011;11731;48.592;8.858;2023-02-01T02:45:10;2.57;;;2.07;;
23123;SDS011;11731;48.592;8.858;2023-02-01T02:48:02;2.37;;;2.17;;
23123;SDS011;11731;48.592;8.858;2023-02-01T02:50:40;2.70;;;2.00;;
23123;SDS011;11731;48.592;8.858;2023-02-01T02:53:28;2.67;;;2.47;;
23123;SDS011;11731;48.592;8.858;2023-02-01T02:56:17;2.90;;;2.20;;
23123;SDS011;11731;48.592;8.858;2023-02-01T02:59:04;2.73;;;1.97;;
23123;SDS011;11731;48.592;8.858;2023-02-01T03:01:52;2.93;;;2.30;;
23123;SDS011;11731;48.592;8.858;2023-02-01T03:04:37;3.80;;;2.53;;
23123;SDS011;11731;48.592;8.858;2023-02-01T03:10:16;2.50;;;2.30;;
23123;SDS011;11731;48.592;8.858;2023-02-01T03:12:50;3.00;;;2.17;;
23123;SDS011;11731;48.592;8.858;2023-02-01T03:15:21;2.80;;;2.40;;
23123;SDS011;11731;48.592;8.858;2023-02-01T03:17:51;2.83;;;2.37;;
23123;SDS011;11731;48.592;8.858;2023-02-01T03:20:24;2.80;;;2.27;;
23123;SDS011;11731;48.592;8.858;2023-02-01T03:22:55;2.37;;;2.07;;
23123;SDS011;11731;48.592;8.858;2023-02-01T03:25:25;2.30;;;1.93;;
23123;SDS011;11731;48.592;8.858;2023-02-01T03:27:56;2.40;;;2.10;;
23123;SDS011;11731;48.592;8.858;2023-02-01T03:30:28;2.37;;;2.17;;
23123;SDS011;11731;48.592;8.858;2023-02-01T03:32:58;3.03;;;2.27;;
23123;SDS011;11731;48.592;8.858;2023-02-01T03:35:28;2.50;;;2.20;;
23123;SDS011;11731;48.592;8.858;2023-02-01T03:38:02;3.33;;;2.30;;
23123;SDS011;11731;48.592;8.858;2023-02-01T03:40:36;2.20;;;2.00;;
23123;SDS011;11731;48.592;8.858;2023-02-01T03:43:06;2.67;;;2.07;;
23123;SDS011;11731;48.592;8.858;2023-02-01T03:45:38;2.43;;;2.10;;
23123;SDS011;11731;48.592;8.858;2023-02-01T03:48:09;2.83;;;2.30;;
23123;SDS011;11731;48.592;8.858;2023-02-01T03:50:39;3.10;;;2.23;;
23123;SDS011;11731;48.592;8.858;2023-02-01T03:53:14;2.67;;;2.23;;
23123;SDS011;11731;48.592;8.858;2023-02-01T03:55:44;2.30;;;2.10;;
23123;SDS011;11731;48.592;8.858;2023-02-01T03:58:13;2.33;;;1.97;;
23123;SDS011;11731;48.592;8.858;2023-02-01T04:00:43;2.43;;;1.83;;
23123;SDS011;11731;48.592;8.858;2023-02-01T04:03:12;2.57;;;2.10;;
23123;SDS011;11731;48.592;8.858;2023-02-01T04:05:39;2.33;;;1.70;;
23123;SDS011;11731;48.592;8.858;2023-02-01T04:08:06;2.27;;;1.90;;
23123;SDS011;11731;48.592;8.858;2023-02-01T04:10:34;2.33;;;1.93;;
23123;SDS011;11731;48.592;8.858;2023-02-01T04:13:01;2.03;;;1.80;;
23123;SDS011;11731;48.592;8.858;2023-02-01T04:15:31;2.07;;;1.83;;
23123;SDS011;11731;48.592;8.858;2023-02-01T04:17:59;2.20;;;2.00;;
23123;SDS011;11731;48.592;8.858;2023-02-01T04:20:26;2.67;;;1.97;;
23123;SDS011;11731;48.592;8.858;2023-02-01T04:22:53;2.73;;;1.93;;
23123;SDS011;11731;48.592;8.858;2023-02-01T04:25:21;2.10;;;1.73;;
23123;SDS011;11731;48.592;8.858;2023-02-01T04:27:50;2.70;;;1.97;;
23123;SDS011;11731;48.592;8.858;2023-02-01T04:30:17;2.20;;;2.00;;
23123;SDS011;11731;48.592;8.858;2023-02-01T04:32:44;2.50;;;2.10;;
23123;SDS011;11731;48.592;8.858;2023-02-01T04:35:11;2.17;;;1.83;;
23123;SDS011;11731;48.592;8.858;2023-02-01T04:37:44;2.00;;;1.80;;
23123;SDS011;11731;48.592;8.858;2023-02-01T04:40:13;2.33;;;1.80;;
23123;SDS011;11731;48.592;8.858;2023-02-01T04:42:52;2.37;;;1.80;;
23123;SDS011;11731;48.592;8.858;2023-02-01T04:45:19;2.63;;;1.90;;
23123;SDS011;11731;48.592;8.858;2023-02-01T04:47:46;2.20;;;1.90;;
23123;SDS011;11731;48.592;8.858;2023-02-01T04:50:13;2.27;;;1.87;;
23123;SDS011;11731;48.592;8.858;2023-02-01T04:52:40;2.17;;;1.60;;
23123;SDS011;11731;48.592;8.858;2023-02-01T04:55:08;2.50;;;1.70;;
23123;SDS011;11731;48.592;8.858;2023-02-01T04:57:35;3.00;;;1.70;;
23123;SDS011;11731;48.592;8.858;2023-02-01T05:00:08;2.80;;;1.60;;
23123;SDS011;11731;48.592;8.858;2023-02-01T05:02:36;2.73;;;1.60;;
23123;SDS011;11731;48.592;8.858;2023-02-01T05:05:04;1.63;;;1.37;;
23123;SDS011;11731;48.592;8.858;2023-02-01T05:07:31;1.70;;;1.60;;
23123;SDS011;11731;48.592;8.858;2023-02-01T05:09:58;2.20;;;1.50;;
23123;SDS011;11731;48.592;8.858;2023-02-01T05:12:25;1.87;;;1.40;;
23123;SDS011;11731;48.592;8.858;2023-02-01T05:15:11;1.63;;;1.27;;
23123;SDS011;11731;48.592;8.858;2023-02-01T05:17:38;1.67;;;1.43;;
23123;SDS011;11731;48.592;8.858;2023-02-01T05:26:49;1.57;;;1.47;;
23123;SDS011;11731;48.592;8.858;2023-02-01T05:29:17;1.43;;;1.33;;
23123;SDS011;11731;48.592;8.858;2023-02-01T05:31:46;2.30;;;1.60;;
23123;SDS011;11731;48.592;8.858;2023-02-01T05:34:14;2.23;;;1.97;;
23123;SDS011;11731;48.592;8.858;2023-02-01T05:36:41;1.70;;;1.50;;
23123;SDS011;11731;48.592;8.858;2023-02-01T05:39:08;2.63;;;1.90;;
23123;SDS011;11731;48.592;8.858;2023-02-01T05:41:36;1.87;;;1.63;;
23123;SDS011;11731;48.592;8.858;2023-02-01T05:44:03;1.97;;;1.70;;
23123;SDS011;11731;48.592;8.858;2023-02-01T05:46:32;2.73;;;2.00;;
23123;SDS011;11731;48.592;8.858;2023-02-01T05:49:00;1.73;;;1.60;;
23123;SDS011;11731;48.592;8.858;2023-02-01T05:51:27;1.80;;;1.70;;
23123;SDS011;11731;48.592;8.858;2023-02-01T05:53:54;2.07;;;1.50;;
23123;SDS011;11731;48.592;8.858;2023-02-01T05:56:21;2.40;;;1.80;;
23123;SDS011;11731;48.592;8.858;2023-02-01T05:58:48;3.17;;;1.60;;
23123;SDS011;11731;48.592;8.858;2023-02-01T06:01:15;3.10;;;1.60;;
23123;SDS011;11731;48.592;8.858;2023-02-01T06:03:42;2.37;;;1.70;;
23123;SDS011;11731;48.592;8.858;2023-02-01T06:06:10;2.00;;;1.70;;
23123;SDS011;11731;48.592;8.858;2023-02-01T06:08:37;3.10;;;1.83;;
23123;SDS011;11731;48.592;8.858;2023-02-01T06:11:05;1.53;;;1.40;;
23123;SDS011;11731;48.592;8.858;2023-02-01T06:13:33;2.07;;;1.83;;
23123;SDS011;11731;48.592;8.858;2023-02-01T06:16:00;3.17;;;1.63;;
23123;SDS011;11731;48.592;8.858;2023-02-01T06:18:28;2.10;;;1.67;;
23123;SDS011;11731;48.592;8.858;2023-02-01T06:20:56;1.97;;;1.77;;
23123;SDS011;11731;48.592;8.858;2023-02-01T06:23:26;1.93;;;1.77;;
23123;SDS011;11731;48.592;8.858;2023-02-01T06:25:57;1.90;;;1.73;;
23123;SDS011;11731;48.592;8.858;2023-02-01T06:28:26;3.07;;;1.50;;
23123;SDS011;11731;48.592;8.858;2023-02-01T06:30:53;2.20;;;1.80;;
23123;SDS011;11731;48.592;8.858;2023-02-01T06:33:20;2.77;;;1.90;;
23123;SDS011;11731;48.592;8.858;2023-02-01T06:35:47;2.57;;;1.67;;
23123;SDS011;11731;48.592;8.858;2023-02-01T06:38:14;2.07;;;1.63;;
23123;SDS011;11731;48.592;8.858;2023-02-01T06:40:42;3.27;;;1.97;;
23123;SDS011;11731;48.592;8.858;2023-02-01T06:43:10;1.67;;;1.57;;
23123;SDS011;11731;48.592;8.858;2023-02-01T06:45:37;1.67;;;1.40;;
23123;SDS011;11731;48.592;8.858;2023-02-01T06:48:06;2.27;;;1.80;;
23123;SDS011;11731;48.592;8.858;2023-02-01T06:50:33;3.17;;;1.80;;
23123;SDS011;11731;48.592;8.858;2023-02-01T06:53:00;2.30;;;1.97;;
23123;SDS011;11731;48.592;8.858;2023-02-01T06:55:27;2.37;;;1.67;;
23123;SDS011;11731;48.592;8.858;2023-02-01T06:57:55;1.73;;;1.63;;
23123;SDS011;11731;48.592;8.858;2023-02-01T07:00:22;3.20;;;1.67;;
23123;SDS011;11731;48.592;8.858;2023-02-01T07:02:50;2.57;;;1.53;;
23123;SDS011;11731;48.592;8.858;2023-02-01T07:05:17;1.80;;;1.70;;
23123;SDS011;11731;48.592;8.858;2023-02-01T07:07:44;1.97;;;1.50;;
23123;SDS011;11731;48.592;8.858;2023-02-01T07:10:11;1.70;;;1.57;;
23123;SDS011;11731;48.592;8.858;2023-02-01T07:12:38;2.30;;;1.57;;
23123;SDS011;11731;48.592;8.858;2023-02-01T07:15:07;2.60;;;1.50;;
23123;SDS011;11731;48.592;8.858;2023-02-01T07:17:34;1.93;;;1.60;;
23123;SDS011;11731;48.592;8.858;2023-02-01T07:20:01;2.23;;;1.70;;
23123;SDS011;11731;48.592;8.858;2023-02-01T07:22:31;3.47;;;1.47;;
23123;SDS011;11731;48.592;8.858;2023-02-01T07:24:58;2.13;;;1.50;;
23123;SDS011;11731;48.592;8.858;2023-02-01T07:27:25;3.57;;;1.70;;
23123;SDS011;11731;48.592;8.858;2023-02-01T07:30:08;2.77;;;1.50;;
23123;SDS011;11731;48.592;8.858;2023-02-01T07:32:36;1.70;;;1.40;;
23123;SDS011;11731;48.592;8.858;2023-02-01T07:35:03;1.97;;;1.77;;
23123;SDS011;11731;48.592;8.858;2023-02-01T07:37:31;3.10;;;1.80;;
23123;SDS011;11731;48.592;8.858;2023-02-01T07:39:57;2.73;;;2.10;;
23123;SDS011;11731;48.592;8.858;2023-02-01T07:42:24;2.13;;;1.53;;
23123;SDS011;11731;48.592;8.858;2023-02-01T07:44:51;3.27;;;1.63;;
23123;SDS011;11731;48.592;8.858;2023-02-01T07:47:19;2.37;;;1.43;;
23123;SDS011;11731;48.592;8.858;2023-02-01T07:49:47;2.00;;;1.53;;
23123;SDS011;11731;48.592;8.858;2023-02-01T07:52:13;6.00;;;2.00;;
23123;SDS011;11731;48.592;8.858;2023-02-01T07:54:41;4.53;;;1.80;;
23123;SDS011;11731;48.592;8.858;2023-02-01T07:57:09;2.77;;;1.70;;
23123;SDS011;11731;48.592;8.858;2023-02-01T07:59:36;1.80;;;1.50;;
23123;SDS011;11731;48.592;8.858;2023-02-01T08:02:25;2.47;;;1.60;;
23123;SDS011;11731;48.592;8.858;2023-02-01T08:04:52;3.23;;;1.97;;
23123;SDS011;11731;48.592;8.858;2023-02-01T08:07:19;3.13;;;1.87;;
23123;SDS011;11731;48.592;8.858;2023-02-01T08:09:47;2.30;;;1.80;;
23123;SDS011;11731;48.592;8.858;2023-02-01T08:12:14;3.63;;;1.73;;
23123;SDS011;11731;48.592;8.858;2023-02-01T08:14:41;2.07;;;1.70;;
23123;SDS011;11731;48.592;8.858;2023-02-01T08:17:08;2.93;;;1.83;;
23123;SDS011;11731;48.592;8.858;2023-02-01T08:19:36;6.00;;;1.93;;
23123;SDS011;11731;48.592;8.858;2023-02-01T08:22:03;5.23;;;1.37;;
23123;SDS011;11731;48.592;8.858;2023-02-01T08:24:32;3.10;;;1.60;;
23123;SDS011;11731;48.592;8.858;2023-02-01T08:27:00;3.10;;;1.63;;
23123;SDS011;11731;48.592;8.858;2023-02-01T08:29:26;4.97;;;1.57;;
23123;SDS011;11731;48.592;8.858;2023-02-01T08:31:54;3.17;;;1.70;;
23123;SDS011;11731;48.592;8.858;2023-02-01T08:34:21;2.93;;;1.50;;
23123;SDS011;11731;48.592;8.858;2023-02-01T08:36:50;3.20;;;1.77;;
23123;SDS011;11731;48.592;8.858;2023-02-01T08:39:23;2.90;;;1.80;;
23123;SDS011;11731;48.592;8.858;2023-02-01T08:41:50;3.57;;;1.50;;
23123;SDS011;11731;48.592;8.858;2023-02-01T08:44:31;3.73;;;2.43;;
23123;SDS011;11731;48.592;8.858;2023-02-01T08:46:58;4.87;;;2.20;;
23123;SDS011;11731;48.592;8.858;2023-02-01T08:49:24;4.67;;;2.07;;
23123;SDS011;11731;48.592;8.858;2023-02-01T08:51:53;2.97;;;1.30;;
23123;SDS011;11731;48.592;8.858;2023-02-01T08:55:22;3.60;;;1.23;;
23123;SDS011;11731;48.592;8.858;2023-02-01T08:57:25;2.40;;;1.40;;
23123;SDS011;11731;48.592;8.858;2023-02-01T08:59:52;3.90;;;1.77;;
23123;SDS011;11731;48.592;8.858;2023-02-01T09:02:19;2.57;;;1.57;;
23123;SDS011;11731;48.592;8.858;2023-02-01T09:04:46;4.73;;;1.53;;
23123;SDS011;11731;48.592;8.858;2023-02-01T09:07:14;3.40;;;1.30;;
23123;SDS011;11731;48.592;8.858;2023-02-01T09:09:48;2.40;;;1.47;;
23123;SDS011;11731;48.592;8.858;2023-02-01T09:12:16;2.17;;;1.40;;
23123;SDS011;11731;48.592;8.858;2023-02-01T09:14:43;3.43;;;1.60;;
23123;SDS011;11731;48.592;8.858;2023-02-01T09:17:10;3.47;;;1.60;;
23123;SDS011;11731;48.592;8.858;2023-02-01T09:19:38;6.47;;;1.60;;
23123;SDS011;11731;48.592;8.858;2023-02-01T09:22:05;3.13;;;1.30;;
23123;SDS011;11731;48.592;8.858;2023-02-01T09:24:33;2.20;;;1.30;;
23123;SDS011;11731;48.592;8.858;2023-02-01T09:27:00;4.80;;;1.40;;
23123;SDS011;11731;48.592;8.858;2023-02-01T09:29:27;2.30;;;1.60;;
23123;SDS011;11731;48.592;8.858;2023-02-01T09:31:54;2.83;;;1.53;;
23123;SDS011;11731;48.592;8.858;2023-02-01T09:34:21;2.50;;;1.43;;
23123;SDS011;11731;48.592;8.858;2023-02-01T09:36:48;7.50;;;2.33;;
23123;SDS011;11731;48.592;8.858;2023-02-01T09:39:18;2.60;;;1.50;;
23123;SDS011;11731;48.592;8.858;2023-02-01T09:41:48;2.40;;;1.60;;
23123;SDS011;11731;48.592;8.858;2023-02-01T09:44:33;8.80;;;1.80;;
23123;SDS011;11731;48.592;8.858;2023-02-01T09:47:19;3.13;;;1.80;;
23123;SDS011;11731;48.592;8.858;2023-02-01T09:49:56;6.67;;;1.93;;
23123;SDS011;11731;48.592;8.858;2023-02-01T09:52:28;3.93;;;1.60;;
23123;SDS011;11731;48.592;8.858;2023-02-01T09:55:00;5.97;;;2.43;;
23123;SDS011;11731;48.592;8.858;2023-02-01T10:04:16;4.30;;;1.80;;
23123;SDS011;11731;48.592;8.858;2023-02-01T10:07:09;5.13;;;1.80;;
23123;SDS011;11731;48.592;8.858;2023-02-01T10:09:49;2.97;;;1.40;;
23123;SDS011;11731;48.592;8.858;2023-02-01T10:15:23;5.90;;;1.87;;
23123;SDS011;11731;48.592;8.858;2023-02-01T10:18:15;5.63;;;1.80;;
23123;SDS011;11731;48.592;8.858;2023-02-01T10:21:00;10.33;;;2.03;;
23123;SDS011;11731;48.592;8.858;2023-02-01T10:23:39;4.43;;;1.80;;
23123;SDS011;11731;48.592;8.858;2023-02-01T10:26:18;7.00;;;2.30;;
23123;SDS011;11731;48.592;8.858;2023-02-01T10:28:46;4.23;;;1.70;;
23123;SDS011;11731;48.592;8.858;2023-02-01T10:31:16;5.37;;;1.80;;
23123;SDS011;11731;48.592;8.858;2023-02-01T10:33:45;3.73;;;1.40;;
23123;SDS011;11731;48.592;8.858;2023-02-01T10:36:20;7.23;;;1.90;;
23123;SDS011;11731;48.592;8.858;2023-02-01T10:38:51;6.27;;;1.90;;
23123;SDS011;11731;48.592;8.858;2023-02-01T10:41:19;5.03;;;2.00;;
23123;SDS011;11731;48.592;8.858;2023-02-01T10:43:48;2.40;;;1.37;;
23123;SDS011;11731;48.592;8.858;2023-02-01T10:46:19;4.23;;;1.67;;
23123;SDS011;11731;48.592;8.858;2023-02-01T10:48:47;7.43;;;2.00;;
23123;SDS011;11731;48.592;8.858;2023-02-01T10:52:00;3.23;;;1.50;;
23123;SDS011;11731;48.592;8.858;2023-02-01T10:57:48;6.17;;;2.10;;
23123;SDS011;11731;48.592;8.858;2023-02-01T11:00:44;2.70;;;1.50;;
23123;SDS011;11731;48.592;8.858;2023-02-01T11:06:09;6.70;;;1.50;;
23123;SDS011;11731;48.592;8.858;2023-02-01T11:08:54;7.47;;;3.00;;
23123;SDS011;11731;48.592;8.858;2023-02-01T11:11:22;8.63;;;2.10;;
23123;SDS011;11731;48.592;8.858;2023-02-01T11:14:13;9.07;;;2.00;;
23123;SDS011;11731;48.592;8.858;2023-02-01T11:16:58;4.30;;;1.80;;
23123;SDS011;11731;48.592;8.858;2023-02-01T11:19:26;3.17;;;1.53;;
23123;SDS011;11731;48.592;8.858;2023-02-01T11:21:55;6.13;;;1.90;;
23123;SDS011;11731;48.592;8.858;2023-02-01T11:24:28;3.87;;;1.70;;
23123;SDS011;11731;48.592;8.858;2023-02-01T11:27:00;6.20;;;1.70;;
23123;SDS011;11731;48.592;8.858;2023-02-01T11:29:31;4.37;;;1.80;;
23123;SDS011;11731;48.592;8.858;2023-02-01T11:32:03;4.30;;;1.67;;
23123;SDS011;11731;48.592;8.858;2023-02-01T11:34:32;4.60;;;1.70;;
23123;SDS011;11731;48.592;8.858;2023-02-01T11:37:03;5.53;;;1.83;;
23123;SDS011;11731;48.592;8.858;2023-02-01T11:39:37;10.90;;;1.67;;
23123;SDS011;11731;48.592;8.858;2023-02-01T11:42:05;5.20;;;2.00;;
23123;SDS011;11731;48.592;8.858;2023-02-01T11:44:38;6.60;;;1.80;;
23123;SDS011;11731;48.592;8.858;2023-02-01T11:47:18;4.00;;;1.47;;
23123;SDS011;11731;48.592;8.858;2023-02-01T11:49:47;4.33;;;1.47;;
23123;SDS011;11731;48.592;8.858;2023-02-01T11:52:16;3.00;;;1.43;;
23123;SDS011;11731;48.592;8.858;2023-02-01T11:54:53;4.53;;;1.67;;
23123;SDS011;11731;48.592;8.858;2023-02-01T11:57:33;2.97;;;1.63;;
23123;SDS011;11731;48.592;8.858;2023-02-01T12:00:14;5.37;;;1.50;;
23123;SDS011;11731;48.592;8.858;2023-02-01T12:03:25;3.77;;;1.93;;
23123;SDS011;11731;48.592;8.858;2023-02-01T12:06:11;5.27;;;1.83;;
23123;SDS011;11731;48.592;8.858;2023-02-01T12:08:52;6.83;;;1.90;;
23123;SDS011;11731;48.592;8.858;2023-02-01T12:11:43;4.00;;;1.70;;
23123;SDS011;11731;48.592;8.858;2023-02-01T12:14:36;5.80;;;1.33;;
23123;SDS011;11731;48.592;8.858;2023-02-01T12:17:24;4.00;;;1.80;;
23123;SDS011;11731;48.592;8.858;2023-02-01T12:20:12;7.93;;;1.60;;
23123;SDS011;11731;48.592;8.858;2023-02-01T12:26:01;3.83;;;1.40;;
23123;SDS011;11731;48.592;8.858;2023-02-01T12:28:39;5.27;;;1.40;;
23123;SDS011;11731;48.592;8.858;2023-02-01T12:31:30;4.87;;;1.80;;
23123;SDS011;11731;48.592;8.858;2023-02-01T12:34:20;5.97;;;1.60;;
23123;SDS011;11731;48.592;8.858;2023-02-01T12:37:14;4.30;;;1.60;;
23123;SDS011;11731;48.592;8.858;2023-02-01T12:40:00;9.20;;;1.93;;
23123;SDS011;11731;48.592;8.858;2023-02-01T12:42:38;7.10;;;1.57;;
23123;SDS011;11731;48.592;8.858;2023-02-01T12:45:12;7.40;;;1.97;;
23123;SDS011;11731;48.592;8.858;2023-02-01T12:50:59;4.47;;;1.73;;
23123;SDS011;11731;48.592;8.858;2023-02-01T12:53:45;5.80;;;1.67;;
23123;SDS011;11731;48.592;8.858;2023-02-01T12:58:29;4.73;;;1.47;;
23123;SDS011;11731;48.592;8.858;2023-02-01T12:59:22;6.07;;;1.67;;
23123;SDS011;11731;48.592;8.858;2023-02-01T13:01:59;5.10;;;1.43;;
23123;SDS011;11731;48.592;8.858;2023-02-01T13:04:42;6.00;;;1.80;;
23123;SDS011;11731;48.592;8.858;2023-02-01T13:07:20;3.73;;;1.53;;
23123;SDS011;11731;48.592;8.858;2023-02-01T13:09:51;7.67;;;2.00;;
23123;SDS011;11731;48.592;8.858;2023-02-01T13:12:24;3.50;;;1.57;;
23123;SDS011;11731;48.592;8.858;2023-02-01T13:14:56;4.47;;;1.60;;
23123;SDS011;11731;48.592;8.858;2023-02-01T13:20:25;4.80;;;2.23;;
23123;SDS011;11731;48.592;8.858;2023-02-01T13:22:58;4.77;;;1.50;;
23123;SDS011;11731;48.592;8.858;2023-02-01T13:25:30;2.73;;;1.57;;
23123;SDS011;11731;48.592;8.858;2023-02-01T13:28:03;5.27;;;1.33;;
23123;SDS011;11731;48.592;8.858;2023-02-01T13:30:38;7.13;;;1.63;;
23123;SDS011;11731;48.592;8.858;2023-02-01T13:36:18;4.37;;;1.47;;
23123;SDS011;11731;48.592;8.858;2023-02-01T13:39:12;5.57;;;1.97;;
23123;SDS011;11731;48.592;8.858;2023-02-01T13:41:54;5.30;;;1.80;;
23123;SDS011;11731;48.592;8.858;2023-02-01T13:44:25;6.20;;;1.80;;
23123;SDS011;11731;48.592;8.858;2023-02-01T13:46:56;6.27;;;1.70;;
23123;SDS011;11731;48.592;8.858;2023-02-01T13:49:49;6.43;;;2.43;;
23123;SDS011;11731;48.592;8.858;2023-02-01T13:52:35;3.90;;;1.80;;
23123;SDS011;11731;48.592;8.858;2023-02-01T13:55:15;5.37;;;1.90;;
23123;SDS011;11731;48.592;8.858;2023-02-01T13:58:02;9.00;;;1.70;;
23123;SDS011;11731;48.592;8.858;2023-02-01T14:07:22;4.33;;;1.90;;
23123;SDS011;11731;48.592;8.858;2023-02-01T14:09:51;7.30;;;2.23;;
23123;SDS011;11731;48.592;8.858;2023-02-01T14:15:24;8.10;;;1.90;;
23123;SDS011;11731;48.592;8.858;2023-02-01T14:17:55;5.93;;;1.93;;
23123;SDS011;11731;48.592;8.858;2023-02-01T14:20:39;3.80;;;1.53;;
23123;SDS011;11731;48.592;8.858;2023-02-01T14:23:39;8.03;;;1.83;;
23123;SDS011;11731;48.592;8.858;2023-02-01T14:26:16;6.27;;;2.07;;
23123;SDS011;11731;48.592;8.858;2023-02-01T14:28:52;3.70;;;1.53;;
23123;SDS011;11731;48.592;8.858;2023-02-01T14:34:26;5.60;;;2.27;;
23123;SDS011;11731;48.592;8.858;2023-02-01T14:36:58;5.67;;;1.50;;
23123;SDS011;11731;48.592;8.858;2023-02-01T14:39:28;5.00;;;1.60;;
23123;SDS011;11731;48.592;8.858;2023-02-01T14:42:00;3.53;;;1.43;;
23123;SDS011;11731;48.592;8.858;2023-02-01T14:44:34;3.63;;;1.33;;
23123;SDS011;11731;48.592;8.858;2023-02-01T14:47:03;3.43;;;1.63;;
23123;SDS011;11731;48.592;8.858;2023-02-01T14:49:54;6.37;;;1.97;;
23123;SDS011;11731;48.592;8.858;2023-02-01T14:52:30;2.33;;;1.50;;
23123;SDS011;11731;48.592;8.858;2023-02-01T14:55:02;4.83;;;1.63;;
23123;SDS011;11731;48.592;8.858;2023-02-01T14:57:34;6.33;;;1.70;;
23123;SDS011;11731;48.592;8.858;2023-02-01T15:00:06;3.47;;;1.43;;
23123;SDS011;11731;48.592;8.858;2023-02-01T15:02:43;4.57;;;1.70;;
23123;SDS011;11731;48.592;8.858;2023-02-01T15:05:26;6.57;;;2.07;;
23123;SDS011;11731;48.592;8.858;2023-02-01T15:07:57;4.40;;;1.43;;
23123;SDS011;11731;48.592;8.858;2023-02-01T15:10:39;4.80;;;1.57;;
23123;SDS011;11731;48.592;8.858;2023-02-01T15:13:21;5.37;;;1.90;;
23123;SDS011;11731;48.592;8.858;2023-02-01T15:18:43;3.57;;;1.40;;
23123;SDS011;11731;48.592;8.858;2023-02-01T15:21:15;4.53;;;1.63;;
23123;SDS011;11731;48.592;8.858;2023-02-01T15:23:44;6.27;;;1.90;;
23123;SDS011;11731;48.592;8.858;2023-02-01T15:26:23;5.90;;;2.33;;
23123;SDS011;11731;48.592;8.858;2023-02-01T15:28:52;3.67;;;1.50;;
23123;SDS011;11731;48.592;8.858;2023-02-01T15:31:31;5.30;;;1.63;;
23123;SDS011;11731;48.592;8.858;2023-02-01T15:33:59;7.60;;;1.90;;
23123;SDS011;11731;48.592;8.858;2023-02-01T15:36:28;8.63;;;2.40;;
23123;SDS011;11731;48.592;8.858;2023-02-01T15:39:16;4.27;;;1.70;;
23123;SDS011;11731;48.592;8.858;2023-02-01T15:41:48;5.87;;;1.83;;
23123;SDS011;11731;48.592;8.858;2023-02-01T15:44:26;9.10;;;2.30;;
23123;SDS011;11731;48.592;8.858;2023-02-01T15:46:56;9.13;;;1.87;;
23123;SDS011;11731;48.592;8.858;2023-02-01T15:49:27;8.77;;;1.87;;
23123;SDS011;11731;48.592;8.858;2023-02-01T15:51:56;3.83;;;1.47;;
23123;SDS011;11731;48.592;8.858;2023-02-01T15:54:25;6.43;;;2.00;;
23123;SDS011;11731;48.592;8.858;2023-02-01T15:56:56;4.93;;;1.90;;
23123;SDS011;11731;48.592;8.858;2023-02-01T15:59:29;5.93;;;1.87;;
23123;SDS011;11731;48.592;8.858;2023-02-01T16:01:59;4.50;;;1.77;;
23123;SDS011;11731;48.592;8.858;2023-02-01T16:04:45;7.73;;;2.27;;
23123;SDS011;11731;48.592;8.858;2023-02-01T16:07:27;12.53;;;3.10;;
23123;SDS011;11731;48.592;8.858;2023-02-01T16:09:57;9.60;;;2.00;;
23123;SDS011;11731;48.592;8.858;2023-02-01T16:12:30;6.23;;;1.87;;
23123;SDS011;11731;48.592;8.858;2023-02-01T16:15:01;6.03;;;2.00;;
23123;SDS011;11731;48.592;8.858;2023-02-01T16:17:28;5.70;;;1.73;;
23123;SDS011;11731;48.592;8.858;2023-02-01T16:19:55;7.20;;;1.90;;